createdAt,value
2018-04-06T00:02:24.370Z,2.92
2018-04-06T00:04:50.620Z,2.95
2018-04-06T00:07:17.579Z,2.97
2018-04-06T00:09:44.571Z,2.62
2018-04-06T00:12:10.805Z,3.33
2018-04-06T00:14:37.039Z,2.90
2018-04-06T00:17:03.402Z,3.00
2018-04-06T00:19:29.612Z,2.80
2018-04-06T00:21:56.590Z,3.10
2018-04-06T00:24:22.871Z,2.80
2018-04-06T00:26:49.109Z,2.72
2018-04-06T00:29:15.351Z,3.20
2018-04-06T00:31:41.573Z,3.35
2018-04-06T00:34:07.835Z,3.70
2018-04-06T00:36:34.042Z,2.85
2018-04-06T00:39:00.254Z,3.12
2018-04-06T00:41:27.244Z,3.28
2018-04-06T00:43:53.476Z,2.53
2018-04-06T00:46:19.709Z,3.67
2018-04-06T00:48:45.954Z,3.95
2018-04-06T00:51:12.214Z,2.83
2018-04-06T00:53:46.415Z,3.00
2018-04-06T00:56:12.649Z,2.92
2018-04-06T00:58:39.620Z,3.03
2018-04-06T01:01:05.841Z,3.05
2018-04-06T01:03:32.792Z,2.75
2018-04-06T01:05:59.764Z,3.65
2018-04-06T01:08:25.987Z,3.17
2018-04-06T01:10:52.957Z,3.10
2018-04-06T01:13:19.908Z,3.15
2018-04-06T01:15:46.144Z,3.62
2018-04-06T01:18:13.455Z,3.05
2018-04-06T01:20:39.664Z,3.78
2018-04-06T01:23:05.932Z,2.70
2018-04-06T01:25:32.166Z,3.00
2018-04-06T01:27:58.389Z,3.25
2018-04-06T01:30:24.625Z,2.90
2018-04-06T01:32:50.860Z,3.20
2018-04-06T01:35:17.823Z,3.40
2018-04-06T01:37:44.784Z,3.20
2018-04-06T01:40:11.004Z,3.55
2018-04-06T01:42:38.071Z,3.28
2018-04-06T01:45:05.070Z,2.85
2018-04-06T01:47:31.827Z,3.53
2018-04-06T01:49:58.031Z,4.03
2018-04-06T01:52:25.007Z,3.20
2018-04-06T01:54:51.233Z,3.65
2018-04-06T01:57:18.219Z,3.70
2018-04-06T01:59:44.440Z,3.45
2018-04-06T02:02:10.659Z,3.25
2018-04-06T02:04:37.651Z,3.60
2018-04-06T02:07:03.891Z,4.28
2018-04-06T02:09:30.135Z,3.25
2018-04-06T02:11:56.355Z,3.50
2018-04-06T02:14:22.614Z,2.80
2018-04-06T02:16:48.819Z,3.62
2018-04-06T02:19:16.026Z,3.50
2018-04-06T02:21:42.265Z,3.25
2018-04-06T02:24:08.481Z,3.12
2018-04-06T02:26:34.707Z,4.03
2018-04-06T02:29:01.679Z,4.00
2018-04-06T02:31:27.904Z,4.18
2018-04-06T02:33:54.168Z,3.80
2018-04-06T02:36:20.397Z,4.40
2018-04-06T02:38:46.616Z,4.40
2018-04-06T02:41:13.610Z,3.95
2018-04-06T02:43:39.877Z,4.60
2018-04-06T02:46:06.059Z,3.75
2018-04-06T02:48:33.004Z,3.75
2018-04-06T02:50:59.976Z,3.90
2018-04-06T02:53:26.932Z,4.30
2018-04-06T02:55:53.885Z,4.50
2018-04-06T02:58:20.851Z,5.90
2018-04-06T03:00:47.813Z,5.25
2018-04-06T03:03:14.045Z,5.00
2018-04-06T03:05:40.995Z,4.40
2018-04-06T03:08:07.959Z,5.45
2018-04-06T03:10:34.919Z,4.97
2018-04-06T03:13:01.900Z,4.60
2018-04-06T03:15:28.119Z,4.70
2018-04-06T03:17:55.080Z,4.93
2018-04-06T03:20:22.276Z,3.90
2018-04-06T03:22:48.498Z,3.83
2018-04-06T03:25:14.762Z,4.72
2018-04-06T03:27:41.000Z,4.40
2018-04-06T03:30:07.218Z,4.45
2018-04-06T03:32:33.454Z,4.22
2018-04-06T03:34:59.674Z,4.80
2018-04-06T03:37:26.640Z,4.57
2018-04-06T03:39:53.596Z,3.90
2018-04-06T03:42:20.542Z,4.47
2018-04-06T03:44:47.490Z,4.05
2018-04-06T03:47:13.755Z,4.15
2018-04-06T03:49:39.969Z,5.07
2018-04-06T03:52:06.200Z,4.75
2018-04-06T03:54:32.417Z,4.50
2018-04-06T03:56:58.654Z,3.85
2018-04-06T03:59:24.905Z,4.57
2018-04-06T04:01:51.141Z,4.50
2018-04-06T04:04:17.371Z,4.80
2018-04-06T04:06:43.584Z,4.85
2018-04-06T04:09:09.794Z,4.62
2018-04-06T04:11:35.999Z,4.43
2018-04-06T04:14:02.980Z,3.87
2018-04-06T04:16:29.207Z,4.22
2018-04-06T04:18:55.447Z,3.60
2018-04-06T04:21:21.988Z,4.55
2018-04-06T04:23:48.251Z,4.22
2018-04-06T04:26:14.481Z,4.70
2018-04-06T04:28:40.724Z,4.12
2018-04-06T04:31:06.925Z,4.03
2018-04-06T04:33:33.147Z,4.95
2018-04-06T04:35:59.382Z,4.20
2018-04-06T04:38:26.343Z,5.43
2018-04-06T04:40:53.291Z,5.15
2018-04-06T04:43:20.256Z,4.20
2018-04-06T04:45:47.216Z,4.50
2018-04-06T04:48:14.182Z,4.65
2018-04-06T04:50:40.410Z,5.07
2018-04-06T04:53:07.379Z,5.68
2018-04-06T04:55:33.587Z,5.35
2018-04-06T04:57:59.851Z,6.50
2018-04-06T05:00:26.779Z,5.75
2018-04-06T05:02:53.029Z,5.57
2018-04-06T05:05:19.995Z,5.20
2018-04-06T05:07:46.958Z,5.03
2018-04-06T05:10:13.933Z,5.82
2018-04-06T05:12:40.174Z,5.07
2018-04-06T05:15:06.393Z,5.72
2018-04-06T05:17:33.376Z,4.62
2018-04-06T05:20:00.322Z,4.62
2018-04-06T05:22:26.702Z,5.70
2018-04-06T05:24:52.937Z,5.03
2018-04-06T05:27:19.154Z,5.35
2018-04-06T05:29:45.406Z,4.78
2018-04-06T05:32:11.619Z,5.43
2018-04-06T05:34:38.602Z,5.72
2018-04-06T05:37:04.804Z,4.65
2018-04-06T05:39:31.768Z,6.32
2018-04-06T05:41:58.723Z,6.75
2018-04-06T05:44:25.683Z,6.03
2018-04-06T05:46:52.635Z,5.78
2018-04-06T05:49:19.605Z,6.85
2018-04-06T05:51:46.564Z,6.70
2018-04-06T05:54:13.524Z,6.75
2018-04-06T05:56:39.788Z,7.10
2018-04-06T05:59:06.031Z,8.88
2018-04-06T06:01:32.231Z,7.60
2018-04-06T06:03:59.195Z,6.57
2018-04-06T06:06:26.146Z,6.20
2018-04-06T06:08:53.151Z,7.45
2018-04-06T06:11:19.352Z,6.80
2018-04-06T06:13:46.324Z,6.90
2018-04-06T06:16:12.553Z,6.97
2018-04-06T06:18:39.527Z,7.68
2018-04-06T06:21:05.746Z,7.15
2018-04-06T06:23:32.796Z,7.55
2018-04-06T06:25:59.780Z,8.32
2018-04-06T06:28:26.021Z,8.07
2018-04-06T06:30:52.231Z,7.80
2018-04-06T06:33:19.211Z,7.97
2018-04-06T06:35:45.447Z,8.55
2018-04-06T06:38:12.397Z,9.50
2018-04-06T06:40:39.371Z,8.95
2018-04-06T06:43:05.652Z,9.52
2018-04-06T06:45:31.821Z,9.70
2018-04-06T06:47:58.031Z,9.63
2018-04-06T06:50:24.271Z,8.95
2018-04-06T06:52:50.480Z,9.65
2018-04-06T06:55:16.734Z,8.27
2018-04-06T06:57:42.973Z,7.60
2018-04-06T07:00:09.205Z,8.95
2018-04-06T07:02:36.270Z,8.68
2018-04-06T07:05:02.536Z,8.68
2018-04-06T07:07:28.732Z,8.70
2018-04-06T07:09:54.967Z,9.43
2018-04-06T07:12:21.930Z,9.90
2018-04-06T07:14:48.220Z,9.27
2018-04-06T07:17:14.478Z,8.88
2018-04-06T07:19:40.680Z,8.63
2018-04-06T07:22:06.969Z,9.27
2018-04-06T07:24:34.019Z,9.10
2018-04-06T07:27:00.267Z,9.48
2018-04-06T07:29:26.503Z,7.90
2018-04-06T07:31:52.705Z,9.80
2018-04-06T07:34:18.931Z,9.38
2018-04-06T07:36:45.160Z,10.13
2018-04-06T07:39:11.372Z,9.13
2018-04-06T07:41:38.354Z,8.13
2018-04-06T07:44:04.581Z,9.55
2018-04-06T07:46:31.552Z,8.15
2018-04-06T07:48:57.776Z,10.82
2018-04-06T07:51:24.755Z,9.85
2018-04-06T07:53:50.952Z,9.70
2018-04-06T07:56:17.179Z,10.55
2018-04-06T07:58:44.168Z,10.07
2018-04-06T08:01:11.149Z,9.85
2018-04-06T08:03:37.371Z,8.60
2018-04-06T08:06:04.368Z,9.07
2018-04-06T08:08:30.569Z,9.48
2018-04-06T08:10:57.589Z,13.07
2018-04-06T08:13:23.813Z,9.23
2018-04-06T08:15:50.047Z,9.90
2018-04-06T08:18:16.243Z,10.40
2018-04-06T08:20:43.215Z,9.88
2018-04-06T08:23:09.481Z,10.85
2018-04-06T08:25:35.731Z,11.40
2018-04-06T08:28:01.967Z,10.68
2018-04-06T08:30:28.223Z,9.85
2018-04-06T08:32:54.437Z,9.43
2018-04-06T08:35:20.677Z,10.23
2018-04-06T08:37:46.925Z,9.95
2018-04-06T08:40:13.158Z,11.00
2018-04-06T08:42:39.374Z,9.13
2018-04-06T08:45:06.360Z,10.65
2018-04-06T08:47:32.584Z,10.05
2018-04-06T08:49:58.814Z,10.60
2018-04-06T08:52:25.060Z,9.30
2018-04-06T08:54:51.325Z,11.52
2018-04-06T08:57:17.571Z,9.38
2018-04-06T08:59:43.801Z,10.20
2018-04-06T09:02:10.027Z,10.00
2018-04-06T09:04:36.245Z,10.30
2018-04-06T09:07:03.221Z,9.48
2018-04-06T09:09:29.418Z,10.13
2018-04-06T09:11:55.658Z,9.20
2018-04-06T09:14:21.879Z,10.73
2018-04-06T09:16:48.138Z,9.35
2018-04-06T09:19:14.393Z,10.13
2018-04-06T09:21:40.643Z,9.55
2018-04-06T09:24:07.626Z,8.93
2018-04-06T09:26:33.891Z,9.65
2018-04-06T09:29:00.098Z,8.38
2018-04-06T09:31:26.329Z,9.60
2018-04-06T09:33:53.268Z,9.80
2018-04-06T09:36:20.297Z,9.25
2018-04-06T09:38:46.539Z,9.68
2018-04-06T09:41:12.769Z,9.15
2018-04-06T09:43:38.998Z,10.15
2018-04-06T09:46:05.232Z,8.57
2018-04-06T09:48:31.486Z,8.93
2018-04-06T09:50:58.454Z,9.60
2018-04-06T09:53:24.692Z,8.48
2018-04-06T09:55:50.936Z,8.07
2018-04-06T09:58:17.158Z,8.35
2018-04-06T10:00:43.404Z,8.60
2018-04-06T10:03:09.666Z,9.30
2018-04-06T10:05:35.906Z,8.90
2018-04-06T10:08:02.180Z,8.43
2018-04-06T10:10:29.150Z,7.30
2018-04-06T10:12:56.143Z,7.63
2018-04-06T10:15:22.399Z,7.63
2018-04-06T10:17:48.672Z,8.30
2018-04-06T10:20:14.893Z,8.90
2018-04-06T10:22:41.139Z,7.90
2018-04-06T10:25:07.380Z,7.00
2018-04-06T10:27:33.622Z,6.93
2018-04-06T10:29:59.847Z,7.73
2018-04-06T10:32:26.071Z,7.50
2018-04-06T10:34:52.273Z,8.50
2018-04-06T10:37:18.550Z,7.63
2018-04-06T10:39:44.773Z,7.90
2018-04-06T10:42:11.040Z,7.27
2018-04-06T10:44:37.282Z,6.60
2018-04-06T10:47:04.289Z,7.00
2018-04-06T10:49:31.277Z,8.10
2018-04-06T10:51:57.507Z,7.20
2018-04-06T10:54:23.735Z,6.83
2018-04-06T10:56:50.700Z,7.73
2018-04-06T10:59:16.925Z,7.13
2018-04-06T11:01:43.921Z,8.07
2018-04-06T11:04:10.125Z,8.27
2018-04-06T11:06:37.088Z,7.00
2018-04-06T11:09:05.075Z,7.40
2018-04-06T11:11:31.299Z,6.30
2018-04-06T11:13:58.263Z,6.90
2018-04-06T11:16:25.224Z,8.27
2018-04-06T11:18:52.204Z,5.70
2018-04-06T11:21:18.411Z,6.07
2018-04-06T11:23:45.452Z,6.17
2018-04-06T11:26:11.680Z,6.87
2018-04-06T11:28:37.921Z,5.77
2018-04-06T11:31:04.127Z,6.30
2018-04-06T11:33:32.066Z,6.07
2018-04-06T11:36:00.001Z,6.30
2018-04-06T11:38:27.947Z,6.40
2018-04-06T11:40:55.876Z,6.23
2018-04-06T11:43:22.118Z,6.20
2018-04-06T11:45:48.322Z,8.17
2018-04-06T11:48:14.560Z,8.97
2018-04-06T11:50:40.780Z,8.00
2018-04-06T11:53:07.078Z,8.00
2018-04-06T11:55:33.275Z,6.80
2018-04-06T11:57:59.528Z,8.23
2018-04-06T12:00:25.778Z,7.43
2018-04-06T12:02:52.001Z,7.20
2018-04-06T12:05:18.252Z,7.20
2018-04-06T12:07:44.488Z,7.10
2018-04-06T12:10:10.740Z,8.17
2018-04-06T12:12:37.010Z,7.23
2018-04-06T12:15:04.001Z,7.43
2018-04-06T12:17:30.974Z,7.43
2018-04-06T12:19:57.189Z,7.27
2018-04-06T12:22:24.128Z,7.17
2018-04-06T12:24:50.369Z,8.03
2018-04-06T12:27:16.867Z,7.20
2018-04-06T12:29:43.073Z,6.90
2018-04-06T12:32:09.302Z,7.37
2018-04-06T12:34:35.545Z,6.97
2018-04-06T12:37:01.779Z,6.73
2018-04-06T12:39:29.508Z,7.70
2018-04-06T12:41:55.739Z,7.50
2018-04-06T12:44:21.954Z,8.03
2018-04-06T12:46:48.933Z,7.97
2018-04-06T12:49:15.166Z,6.77
2018-04-06T12:51:42.145Z,7.23
2018-04-06T12:54:08.487Z,7.77
2018-04-06T12:56:34.725Z,7.90
2018-04-06T12:59:00.991Z,7.23
2018-04-06T13:01:27.229Z,7.97
2018-04-06T13:03:53.455Z,5.57
2018-04-06T13:06:19.726Z,7.23
2018-04-06T13:08:45.955Z,6.53
2018-04-06T13:11:12.176Z,8.40
2018-04-06T13:13:38.409Z,7.67
2018-04-06T13:16:04.665Z,7.63
2018-04-06T13:18:30.893Z,7.50
2018-04-06T13:20:57.113Z,6.37
2018-04-06T13:23:24.142Z,7.80
2018-04-06T13:25:50.341Z,7.60
2018-04-06T13:28:16.625Z,7.90
2018-04-06T13:30:42.868Z,7.23
2018-04-06T13:33:09.098Z,7.80
2018-04-06T13:35:35.353Z,7.03
2018-04-06T13:38:01.587Z,7.57
2018-04-06T13:40:27.817Z,7.90
2018-04-06T13:42:54.043Z,6.93
2018-04-06T13:45:20.346Z,8.63
2018-04-06T13:47:46.595Z,7.33
2018-04-06T13:50:12.831Z,8.10
2018-04-06T13:52:39.079Z,7.80
2018-04-06T13:55:05.369Z,7.07
2018-04-06T13:57:31.628Z,6.70
2018-04-06T13:59:57.901Z,8.00
2018-04-06T14:02:24.126Z,8.20
2018-04-06T14:04:51.138Z,7.47
2018-04-06T14:07:18.101Z,7.57
2018-04-06T14:09:44.371Z,8.60
2018-04-06T14:12:11.332Z,7.53
2018-04-06T14:14:38.300Z,9.00
2018-04-06T14:17:04.613Z,7.73
2018-04-06T14:19:30.880Z,8.23
2018-04-06T14:21:57.838Z,8.23
2018-04-06T14:24:24.826Z,9.20
2018-04-06T14:26:51.107Z,8.60
2018-04-06T14:29:17.372Z,7.50
2018-04-06T14:31:44.349Z,8.27
2018-04-06T14:34:10.616Z,8.60
2018-04-06T14:36:36.860Z,8.30
2018-04-06T14:39:03.160Z,8.60
2018-04-06T14:41:30.118Z,8.80
2018-04-06T14:43:57.109Z,8.10
2018-04-06T14:46:23.352Z,8.47
2018-04-06T14:48:49.586Z,8.33
2018-04-06T14:51:15.802Z,7.30
2018-04-06T14:53:42.767Z,8.63
2018-04-06T14:56:08.999Z,7.43
2018-04-06T14:58:35.977Z,7.57
2018-04-06T15:01:02.254Z,8.60
2018-04-06T15:03:28.478Z,8.00
2018-04-06T15:05:54.722Z,7.47
2018-04-06T15:08:20.964Z,8.10
2018-04-06T15:10:47.200Z,6.97
2018-04-06T15:13:13.464Z,7.10
2018-04-06T15:15:39.699Z,7.80
2018-04-06T15:18:05.946Z,7.20
2018-04-06T15:20:32.214Z,6.90
2018-04-06T15:22:59.182Z,7.03
2018-04-06T15:25:28.435Z,8.10
2018-04-06T15:27:54.684Z,6.63
2018-04-06T15:30:20.931Z,8.07
2018-04-06T15:32:47.171Z,6.70
2018-04-06T15:35:13.452Z,7.40
2018-04-06T15:37:40.430Z,6.77
2018-04-06T15:40:06.677Z,7.30
2018-04-06T15:42:32.931Z,7.53
2018-04-06T15:44:59.202Z,7.20
2018-04-06T15:47:25.443Z,6.90
2018-04-06T15:49:51.699Z,7.37
2018-04-06T15:52:17.931Z,7.07
2018-04-06T15:54:44.142Z,7.20
2018-04-06T15:57:10.401Z,6.43
2018-04-06T15:59:36.670Z,7.33
2018-04-06T16:02:03.651Z,7.47
2018-04-06T16:04:29.887Z,6.67
2018-04-06T16:06:56.130Z,6.50
2018-04-06T16:09:22.353Z,6.63
2018-04-06T16:11:49.404Z,7.90
2018-04-06T16:14:16.390Z,6.23
2018-04-06T16:16:42.641Z,7.40
2018-04-06T16:19:08.845Z,6.20
2018-04-06T16:21:35.096Z,7.50
2018-04-06T16:24:02.099Z,6.90
2018-04-06T16:26:28.386Z,7.17
2018-04-06T16:28:55.356Z,6.63
2018-04-06T16:31:22.339Z,6.27
2018-04-06T16:33:48.570Z,7.20
2018-04-06T16:36:14.818Z,7.00
2018-04-06T16:38:41.035Z,6.60
2018-04-06T16:41:08.037Z,6.33
2018-04-06T16:43:34.252Z,6.90
2018-04-06T16:46:00.531Z,6.43
2018-04-06T16:48:27.066Z,7.13
2018-04-06T16:50:53.366Z,6.37
2018-04-06T16:53:20.333Z,7.30
2018-04-06T16:55:46.604Z,6.77
2018-04-06T16:58:12.847Z,6.77
2018-04-06T17:00:39.065Z,6.57
2018-04-06T17:03:05.333Z,6.50
2018-04-06T17:05:31.571Z,8.03
2018-04-06T17:07:57.842Z,6.83
2018-04-06T17:10:24.823Z,7.80
2018-04-06T17:12:51.803Z,6.70
2018-04-06T17:15:18.035Z,7.10
2018-04-06T17:17:44.279Z,7.60
2018-04-06T17:20:10.512Z,9.17
2018-04-06T17:22:37.011Z,9.93
2018-04-06T17:25:03.389Z,7.27
2018-04-06T17:27:30.355Z,12.90
2018-04-06T17:29:56.576Z,8.73
2018-04-06T17:32:23.571Z,8.43
2018-04-06T17:34:49.821Z,8.20
2018-04-06T17:37:16.067Z,8.40
2018-04-06T17:39:42.315Z,8.20
2018-04-06T17:42:08.571Z,8.30
2018-04-06T17:44:34.829Z,7.60
2018-04-06T17:47:01.838Z,8.80
2018-04-06T17:49:28.067Z,7.70
2018-04-06T17:51:54.326Z,8.70
2018-04-06T17:54:20.566Z,8.73
2018-04-06T17:56:46.794Z,8.37
2018-04-06T17:59:13.051Z,7.70
2018-04-06T18:01:39.321Z,8.30
2018-04-06T18:04:05.544Z,8.87
2018-04-06T18:06:31.824Z,8.93
2018-04-06T18:08:58.808Z,9.10
2018-04-06T18:11:25.064Z,9.63
2018-04-06T18:13:51.317Z,9.40
2018-04-06T18:16:17.591Z,9.10
2018-04-06T18:18:43.883Z,8.30
2018-04-06T18:21:10.124Z,10.97
2018-04-06T18:23:36.437Z,10.20
2018-04-06T18:26:02.701Z,10.43
2018-04-06T18:28:28.981Z,10.90
2018-04-06T18:30:55.251Z,9.35
2018-04-06T18:33:22.298Z,10.00
2018-04-06T18:35:48.561Z,10.85
2018-04-06T18:38:15.635Z,10.20
2018-04-06T18:40:41.908Z,9.77
2018-04-06T18:43:08.957Z,11.23
2018-04-06T18:45:35.256Z,11.80
2018-04-06T18:48:02.297Z,11.95
2018-04-06T18:50:28.544Z,10.82
2018-04-06T18:52:54.799Z,9.70
2018-04-06T18:55:21.787Z,10.30
2018-04-06T18:57:48.044Z,7.80
2018-04-06T19:00:14.286Z,8.15
2018-04-06T19:02:40.594Z,8.55
2018-04-06T19:05:06.860Z,9.32
2018-04-06T19:07:33.244Z,9.82
2018-04-06T19:09:59.541Z,8.50
2018-04-06T19:12:25.806Z,9.15
2018-04-06T19:14:52.036Z,9.27
2018-04-06T19:17:18.278Z,8.15
2018-04-06T19:19:44.580Z,8.02
2018-04-06T19:22:11.606Z,8.02
2018-04-06T19:24:38.011Z,7.28
2018-04-06T19:27:04.283Z,7.07
2018-04-06T19:29:30.579Z,7.68
2018-04-06T19:31:56.972Z,7.37
2018-04-06T19:34:23.282Z,7.53
2018-04-06T19:36:49.556Z,6.10
2018-04-06T19:39:15.827Z,6.28
2018-04-06T19:41:42.850Z,7.15
2018-04-06T19:44:09.200Z,7.22
2018-04-06T19:46:35.524Z,8.10
2018-04-06T19:49:01.853Z,7.12
2018-04-06T19:51:28.078Z,7.55
2018-04-06T19:53:54.399Z,6.72
2018-04-06T19:56:21.419Z,6.82
2018-04-06T19:58:47.737Z,6.37
2018-04-06T20:01:14.011Z,7.30
2018-04-06T20:03:40.271Z,7.00
2018-04-06T20:06:06.519Z,6.87
2018-04-06T20:08:33.520Z,6.80
2018-04-06T20:10:59.805Z,6.50
2018-04-06T20:13:26.083Z,6.70
2018-04-06T20:15:52.390Z,7.07
2018-04-06T20:18:18.675Z,6.40
2018-04-06T20:20:44.961Z,6.35
2018-04-06T20:23:11.197Z,7.47
2018-04-06T20:25:37.477Z,7.00
2018-04-06T20:28:04.464Z,7.10
2018-04-06T20:30:30.724Z,7.80
2018-04-06T20:32:57.173Z,9.60
2018-04-06T20:35:23.427Z,6.82
2018-04-06T20:37:49.687Z,7.30
2018-04-06T20:40:15.960Z,7.03
2018-04-06T20:42:42.184Z,7.00
2018-04-06T20:45:09.183Z,7.70
2018-04-06T20:47:35.427Z,7.68
2018-04-06T20:50:01.673Z,7.65
2018-04-06T20:52:27.909Z,6.78
2018-04-06T20:54:54.172Z,7.37
2018-04-06T20:57:20.416Z,8.15
2018-04-06T20:59:46.648Z,7.70
2018-04-06T21:02:12.897Z,7.03
2018-04-06T21:04:39.153Z,9.38
2018-04-06T21:07:05.390Z,8.50
2018-04-06T21:09:31.630Z,8.45
2018-04-06T21:11:57.874Z,9.10
2018-04-06T21:14:24.140Z,8.35
2018-04-06T21:16:50.362Z,8.10
2018-04-06T21:19:17.354Z,9.50
2018-04-06T21:21:43.608Z,8.60
2018-04-06T21:24:09.846Z,8.40
2018-04-06T21:26:36.063Z,8.77
2018-04-06T21:29:02.298Z,8.30
2018-04-06T21:31:29.267Z,9.27
2018-04-06T21:33:55.751Z,8.55
2018-04-06T21:36:22.004Z,8.48
2018-04-06T21:38:48.235Z,9.00
2018-04-06T21:41:14.459Z,9.77
2018-04-06T21:43:40.679Z,8.38
2018-04-06T21:46:06.932Z,9.05
2018-04-06T21:48:33.171Z,8.75
2018-04-06T21:50:59.398Z,8.90
2018-04-06T21:53:25.650Z,8.80
2018-04-06T21:55:51.935Z,8.75
2018-04-06T21:58:18.144Z,9.30
2018-04-06T22:00:44.445Z,9.82
2018-04-06T22:03:11.618Z,9.05
2018-04-06T22:05:37.841Z,9.20
2018-04-06T22:08:04.819Z,8.23
2018-04-06T22:10:31.087Z,9.63
2018-04-06T22:12:57.311Z,9.30
2018-04-06T22:15:23.566Z,10.20
2018-04-06T22:17:49.795Z,9.90
2018-04-06T22:20:16.029Z,9.68
2018-04-06T22:22:42.240Z,10.15
2018-04-06T22:25:09.224Z,10.30
2018-04-06T22:27:35.436Z,10.10
2018-04-06T22:30:02.449Z,9.35
2018-04-06T22:32:28.655Z,10.20
2018-04-06T22:34:54.925Z,10.15
2018-04-06T22:37:21.167Z,10.40
2018-04-06T22:39:47.413Z,9.65
2018-04-06T22:42:13.627Z,9.18
2018-04-06T22:44:39.842Z,10.18
2018-04-06T22:47:06.830Z,11.45
2018-04-06T22:49:33.059Z,10.85
2018-04-06T22:51:59.292Z,9.60
2018-04-06T22:54:25.528Z,10.00
2018-04-06T22:56:52.494Z,10.45
2018-04-06T22:59:18.736Z,10.23
2018-04-06T23:01:44.988Z,9.18
2018-04-06T23:04:11.206Z,10.30
2018-04-06T23:06:38.189Z,9.68
2018-04-06T23:09:04.466Z,10.95
2018-04-06T23:11:30.724Z,10.20
2018-04-06T23:13:56.957Z,10.57
2018-04-06T23:16:23.197Z,9.30
2018-04-06T23:18:49.412Z,9.77
2018-04-06T23:21:15.651Z,9.48
2018-04-06T23:23:41.869Z,9.35
2018-04-06T23:26:08.136Z,10.68
2018-04-06T23:28:34.374Z,9.68
2018-04-06T23:31:00.636Z,10.20
2018-04-06T23:33:26.854Z,9.07
2018-04-06T23:35:53.113Z,10.30
2018-04-06T23:38:19.320Z,10.27
2018-04-06T23:40:45.540Z,8.77
2018-04-06T23:43:11.747Z,10.82
2018-04-06T23:45:37.991Z,9.65
2018-04-06T23:48:04.235Z,10.35
2018-04-06T23:50:31.190Z,9.80
2018-04-06T23:52:57.391Z,9.43
2018-04-06T23:55:23.616Z,9.18
2018-04-06T23:57:49.855Z,9.48
